Kanab, UT (84741)

5:12 AM MST on December 04, 2016 (GMT -0700)
RAWS | | Change Station

Elev 4925 ft 37.04 °N, 112.52 °W | Updated 35 minutes ago

Clear
Clear
22 °F
Feels Like 22 °F
N
1
Wind Variable Wind from East
Gusts 4.0 mph

Today
High -- | Low -- °F
--% Chance of Precip.
Yesterday
High -- | Low -- °F
Precip. -- in
Pressure 30.21 in
Visibility 10.0 miles
Clouds Clear
Windchill 22 °F
Dew Point 12 °F
Humidity 64%
Rainfall in
Snow Depth Not available.
7:28 AM 5:12 PM
Waxing Crescent, 22% visible
METAR KAZC 041155Z AUTO 13003KT 10SM CLR M07/M08 A3021 RMK AO2
Pressure 30.21 in
Visibility 10.0 miles
Clouds Clear
Windchill 22 °F
Dew Point 12 °F
Humidity 64%
Rainfall in
Snow Depth Not available.
7:28 AM 5:12 PM
Waxing Crescent, 22% visible
METAR KAZC 041155Z AUTO 13003KT 10SM CLR M07/M08 A3021 RMK AO2

10-Day Weather Forecast

Almanac

Astronomy

Dec. 04, 2016 Rise Set
Actual Time
Civil Twilight
Nautical Twilight
Astronomical Twilight
Moon
Length of Visible Light
Length of Day
Tomorrow will be .
, % of the Moon is Illuminated

Today's Extremes

State Highs State Lows

Community

WunderPhotos

Upload Photos

1,955,591 photos uploaded!

WunderBlog® & News

Nearby

Air Quality

  Air Quality AQ Index Pollutant
Not available.

Snow Depth

Station Depth Elevation

Earthquake Activity

City Distance Mag. Time & Date
Minimum magnitude displayed is 2.5.

Coastal Water Temperatures

Place Temperature

Stations

Nearby Weather Stations

Station Location Temp. Windchill Dew Point Humidity Wind Precip. Elev Updated Type
                   

Watches & Warnings

There are currently no watches in effect.